Time;durP1;ratioP1;P1;durP2;ratioP2;P2;SDS_P1;SDS_P2;PMS_P1;PMS_P2;Temp;Humidity;BMP_temperature;BMP_pressure;BME280_temperature;BME280_humidity;BME280_pressure;Samples;Min_cycle;Max_cycle;Signal;HPM_P1;HPM_P2
2021/09/08 03:28:24;;;;;;;;;;;;;;;7.65;88.40;99774.47;5044334;28;19993;-81
2021/09/08 03:30:49;;;;;;;;;;;;;;;7.51;88.47;99782.78;5044879;28;20395;-82
2021/09/08 03:33:14;;;;;;;;;;;;;;;7.54;88.43;99777.44;5044341;28;20052;-81
2021/09/08 03:35:39;;;;;;;;;;;;;;;7.47;89.92;99781.19;5044016;28;19924;-82
2021/09/08 03:38:05;;;;;;;;;;;;;;;7.61;94.10;99772.81;5044220;28;19917;-82
2021/09/08 03:40:30;;;;;;;;;;;;;;;7.80;97.12;99771.38;5043199;28;20765;-82
2021/09/08 03:42:55;;;;;;;;;;;;;;;7.95;98.68;99767.34;5044219;28;19917;-84
2021/09/08 03:45:20;;;;;;;;;;;;;;;8.00;99.39;99764.56;5043890;28;19975;-84
2021/09/08 03:47:46;;;;;;;;;;;;;;;7.92;99.61;99766.59;5044076;28;19923;-86
2021/09/08 03:50:11;;;;;;;;;;;;;;;7.94;99.64;99765.63;5044216;28;19928;-85
2021/09/08 03:52:36;;;;;;;;;;;;;;;7.97;99.61;99759.41;5044269;28;20368;-85
2021/09/08 03:55:02;;;;;;;;;;;;;;;8.04;99.15;99760.94;5041445;28;20336;-87
2021/09/08 03:57:27;;;;;;;;;;;;;;;7.97;98.97;99751.47;5059026;28;19923;-85
2021/09/08 03:59:52;;;;;;;;;;;;;;;7.96;100.00;99758.53;5042762;28;20268;-84
2021/09/08 04:02:17;;;;;;;;;;;;;;;8.43;100.00;99747.31;5042445;28;19921;-84
2021/09/08 04:04:43;;;;;;;;;;;;;;;8.60;100.00;99759.94;5042404;28;19917;-83
2021/09/08 04:07:08;;;;;;;;;;;;;;;8.67;100.00;99758.81;5042440;28;20011;-84
2021/09/08 04:09:33;;;;;;;;;;;;;;;8.59;100.00;99752.06;5043206;28;19920;-84
2021/09/08 04:11:58;;;;;;;;;;;;;;;8.48;100.00;99760.38;5041372;28;20291;-86
2021/09/08 04:14:24;;;;;;;;;;;;;;;8.29;100.00;99766.22;5039222;28;19917;-84
2021/09/08 04:16:49;;;;;;;;;;;;;;;8.17;100.00;99764.88;5042446;28;20278;-87
2021/09/08 04:19:14;;;;;;;;;;;;;;;8.03;100.00;99760.97;5042323;28;19939;-87
2021/09/08 04:21:39;;;;;;;;;;;;;;;7.96;100.00;99760.28;5041943;28;19917;-85
2021/09/08 04:24:05;;;;;;;;;;;;;;;7.86;100.00;99754.47;5042530;28;20030;-84
2021/09/08 04:26:30;;;;;;;;;;;;;;;7.84;100.00;99761.56;5041823;28;20003;-84
2021/09/08 04:28:55;;;;;;;;;;;;;;;7.79;99.37;99755.59;5043106;28;20145;-84
2021/09/08 04:31:21;;;;;;;;;;;;;;;7.72;99.54;99754.03;5043334;28;19917;-85
2021/09/08 04:33:46;;;;;;;;;;;;;;;7.72;99.21;99748.75;5043348;28;19932;-85
2021/09/08 04:36:11;;;;;;;;;;;;;;;7.59;98.70;99743.00;5041554;28;20070;-87
2021/09/08 04:38:37;;;;;;;;;;;;;;;7.67;98.65;99756.81;5041638;28;19956;-85
2021/09/08 04:41:03;;;;;;;;;;;;;;;7.63;97.26;99736.75;5073285;28;19916;-85
2021/09/08 04:43:28;;;;;;;;;;;;;;;7.59;97.22;99746.50;5043048;28;19920;-85
2021/09/08 04:45:54;;;;;;;;;;;;;;;7.54;97.13;99750.22;5038580;28;19917;-85
2021/09/08 07:14:13;;;;;;;;;;;;;;;6.91;93.58;99689.72;4986996;28;20472;-85
2021/09/08 07:16:39;;;;;;;;;;;;;;;6.86;92.87;99681.06;4995224;28;20013;-86
2021/09/08 07:19:04;;;;;;;;;;;;;;;6.86;93.53;99683.72;4995316;28;19968;-85
2021/09/08 07:21:29;;;;;;;;;;;;;;;6.91;93.77;99687.09;4995437;28;19995;-86
2021/09/08 07:23:54;;;;;;;;;;;;;;;6.87;93.43;99681.03;4994221;28;19922;-85
2021/09/08 07:26:19;;;;;;;;;;;;;;;6.93;94.39;99679.16;4994300;28;19929;-86
2021/09/08 07:28:45;;;;;;;;;;;;;;;6.85;94.36;99671.47;4995025;28;19940;-86
2021/09/08 07:31:10;;;;;;;;;;;;;;;6.93;93.83;99674.72;4995112;28;19921;-84
2021/09/08 07:33:35;;;;;;;;;;;;;;;6.99;94.28;99671.91;4994896;28;19914;-84
2021/09/08 07:36:01;;;;;;;;;;;;;;;6.98;94.18;99675.44;4994987;28;19922;-86
2021/09/08 07:38:27;;;;;;;;;;;;;;;6.93;94.44;99663.34;4995081;28;20408;-84
2021/09/08 07:40:53;;;;;;;;;;;;;;;6.96;94.51;99665.88;4994643;28;19980;-86
2021/09/08 07:43:18;;;;;;;;;;;;;;;6.96;94.79;99657.97;5008415;28;19918;-85
2021/09/08 07:45:44;;;;;;;;;;;;;;;6.98;94.72;99657.00;4993421;28;19914;-84
2021/09/08 07:48:09;;;;;;;;;;;;;;;6.98;95.03;99649.09;4993450;28;19925;-84
2021/09/08 07:50:34;;;;;;;;;;;;;;;6.88;95.22;99659.06;5009787;28;19922;-84
2021/09/08 07:53:02;;;;;;;;;;;;;;;7.02;95.36;99645.47;5009109;28;20376;-84
2021/09/08 07:55:28;;;;;;;;;;;;;;;7.12;94.54;99647.84;4994400;28;20048;-84
2021/09/08 07:57:53;;;;;;;;;;;;;;;7.07;94.51;99651.47;4992412;28;20021;-85
2021/09/08 08:00:18;;;;;;;;;;;;;;;7.03;94.48;99647.19;4993146;28;19957;-84
2021/09/08 08:02:44;;;;;;;;;;;;;;;7.03;94.23;99643.69;4990119;28;19922;-86
2021/09/08 08:05:10;;;;;;;;;;;;;;;7.07;94.82;99635.66;4994395;28;19914;-83
2021/09/08 08:07:36;;;;;;;;;;;;;;;7.15;94.47;99637.19;4992678;28;19922;-85
2021/09/08 08:10:01;;;;;;;;;;;;;;;7.16;95.17;99636.28;4994707;28;19997;-84
2021/09/08 08:12:29;;;;;;;;;;;;;;;7.15;94.99;99639.81;4993069;28;19922;-86
2021/09/08 08:14:54;;;;;;;;;;;;;;;7.20;94.11;99636.13;4993568;28;19928;-86
2021/09/08 08:17:19;;;;;;;;;;;;;;;7.18;94.16;99632.69;5009252;28;19918;-88
2021/09/08 08:19:47;;;;;;;;;;;;;;;7.20;94.02;99635.28;4992232;28;20340;-84
2021/09/08 08:22:12;;;;;;;;;;;;;;;7.13;94.43;99629.31;4986161;28;19922;-84
2021/09/08 08:24:38;;;;;;;;;;;;;;;7.12;94.29;99634.66;4974562;28;20017;-84
2021/09/08 08:27:04;;;;;;;;;;;;;;;7.16;95.05;99638.91;4972439;28;20012;-87
2021/09/08 08:29:29;;;;;;;;;;;;;;;7.14;94.62;99640.75;4973004;28;20017;-85
2021/09/08 08:31:55;;;;;;;;;;;;;;;7.12;94.88;99632.88;4969182;28;20020;-84
2021/09/08 08:34:20;;;;;;;;;;;;;;;7.18;94.77;99642.34;4972090;28;19928;-84
2021/09/08 08:36:45;;;;;;;;;;;;;;;7.23;94.98;99640.47;4971975;28;19958;-85
2021/09/08 08:39:11;;;;;;;;;;;;;;;7.23;95.85;99641.31;4989201;28;19925;-85
2021/09/08 08:41:36;;;;;;;;;;;;;;;7.34;95.26;99634.81;4972870;28;20393;-85
2021/09/08 08:44:02;;;;;;;;;;;;;;;7.31;96.98;99638.44;4972014;28;19926;-83
2021/09/08 08:46:28;;;;;;;;;;;;;;;7.58;99.31;99625.28;4974112;28;19922;-83
2021/09/08 08:48:53;;;;;;;;;;;;;;;7.59;98.26;99625.19;4973788;28;20274;-84
2021/09/08 08:51:18;;;;;;;;;;;;;;;7.65;100.00;99632.06;4989053;28;19922;-85
2021/09/08 08:53:44;;;;;;;;;;;;;;;7.79;100.00;99629.81;4987872;28;19922;-84
2021/09/08 08:56:09;;;;;;;;;;;;;;;7.64;100.00;99627.69;4988364;28;19930;-84
2021/09/08 08:58:34;;;;;;;;;;;;;;;7.56;100.00;99627.09;4967044;28;19925;-87
2021/09/08 09:01:18;;;;;;;;;;;;;;;7.64;100.00;99625.94;4972307;28;20013;-86
2021/09/08 09:04:04;;;;;;;;;;;;;;;7.72;100.00;99616.88;4973583;28;19962;-87
2021/09/08 09:06:30;;;;;;;;;;;;;;;7.59;99.67;99617.28;4971011;28;20411;-87
2021/09/08 09:09:00;;;;;;;;;;;;;;;7.59;100.00;99609.38;4988697;28;19940;-85
2021/09/08 09:11:25;;;;;;;;;;;;;;;7.58;100.00;99606.81;4971173;28;20046;-85
2021/09/08 09:13:51;;;;;;;;;;;;;;;7.51;99.25;99603.50;4973611;28;20349;-87
2021/09/08 09:16:16;;;;;;;;;;;;;;;7.47;99.43;99599.25;4973636;28;19918;-85
2021/09/08 09:18:43;;;;;;;;;;;;;;;7.45;99.81;99599.31;4973753;28;19922;-86
2021/09/08 09:21:12;;;;;;;;;;;;;;;7.48;99.96;99600.97;4971597;28;19926;-87
2021/09/08 09:23:50;;;;;;;;;;;;;;;7.40;100.00;99595.97;4973723;28;20305;-86
2021/09/08 09:26:29;;;;;;;;;;;;;;;7.56;99.43;99595.44;4972307;28;19957;-85
2021/09/08 09:29:03;;;;;;;;;;;;;;;7.50;98.73;99596.53;4988256;28;19918;-86
2021/09/08 09:31:28;;;;;;;;;;;;;;;7.46;98.45;99597.53;4973453;28;19918;-86
2021/09/08 09:33:55;;;;;;;;;;;;;;;7.52;100.00;99593.84;4972158;28;19921;-85
2021/09/08 09:36:24;;;;;;;;;;;;;;;7.51;99.60;99597.38;4973367;28;19922;-89
2021/09/08 09:38:51;;;;;;;;;;;;;;;7.56;98.99;99595.44;4972076;28;20290;-85
2021/09/08 09:41:30;;;;;;;;;;;;;;;7.66;99.88;99594.25;4987940;28;19922;-85
2021/09/08 09:43:55;;;;;;;;;;;;;;;7.87;100.00;99584.72;4988165;28;20005;-86
2021/09/08 09:46:21;;;;;;;;;;;;;;;7.76;98.51;99593.00;4973310;28;20558;-85
2021/09/08 09:48:49;;;;;;;;;;;;;;;7.53;98.17;99579.72;4971799;28;19922;-85
2021/09/08 09:51:14;;;;;;;;;;;;;;;7.58;98.40;99591.84;4971936;28;19922;-84
2021/09/08 09:53:40;;;;;;;;;;;;;;;7.78;100.00;99593.78;4971067;28;20395;-85
2021/09/08 09:56:05;;;;;;;;;;;;;;;7.67;98.66;99595.94;4972934;28;19925;-85
2021/09/08 09:58:31;;;;;;;;;;;;;;;7.60;98.87;99587.38;4972073;28;19969;-86
2021/09/08 10:00:56;;;;;;;;;;;;;;;7.62;98.01;99580.28;4971129;28;20021;-85
2021/09/08 10:03:22;;;;;;;;;;;;;;;7.57;99.77;99590.13;4971755;28;20005;-85
2021/09/08 10:05:48;;;;;;;;;;;;;;;7.61;97.66;99580.31;4991794;28;20024;-85
2021/09/08 10:08:19;;;;;;;;;;;;;;;7.57;97.51;99579.56;4973129;28;19974;-87
2021/09/08 10:10:46;;;;;;;;;;;;;;;7.57;97.01;99579.56;4975419;28;19918;-86
2021/09/08 10:13:15;;;;;;;;;;;;;;;7.58;97.24;99583.09;4975565;28;20009;-86
2021/09/08 10:15:42;;;;;;;;;;;;;;;7.53;97.43;99571.81;4977018;28;20065;-86
2021/09/08 10:18:11;;;;;;;;;;;;;;;7.50;97.47;99577.19;4976679;28;19926;-86
2021/09/08 10:20:37;;;;;;;;;;;;;;;7.45;96.65;99561.53;4976803;28;19922;-86
2021/09/08 10:23:06;;;;;;;;;;;;;;;7.49;96.67;99557.03;4976757;28;20348;-86
2021/09/08 10:25:32;;;;;;;;;;;;;;;7.42;96.66;99553.75;4974809;28;19957;-85
2021/09/08 10:27:57;;;;;;;;;;;;;;;7.38;96.84;99557.38;4975612;28;20020;-85
2021/09/08 10:30:23;;;;;;;;;;;;;;;7.41;97.02;99552.88;4976592;28;20009;-85
2021/09/08 10:32:51;;;;;;;;;;;;;;;7.37;96.22;99553.91;4976470;28;19937;-86
2021/09/08 10:35:17;;;;;;;;;;;;;;;7.34;96.74;99546.09;4976533;28;19918;-85
2021/09/08 10:37:46;;;;;;;;;;;;;;;7.38;96.58;99538.94;4975797;28;19918;-85
2021/09/08 10:40:12;;;;;;;;;;;;;;;7.38;96.12;99534.50;4976278;28;19914;-87
2021/09/08 10:42:49;;;;;;;;;;;;;;;7.36;96.20;99541.63;4975155;28;19922;-85
2021/09/08 10:45:40;;;;;;;;;;;;;;;7.39;96.27;99530.13;4976242;28;19965;-85
2021/09/08 10:48:05;;;;;;;;;;;;;;;7.40;95.73;99527.44;4974847;28;20021;-85
2021/09/08 10:50:44;;;;;;;;;;;;;;;7.37;95.67;99526.66;4976324;28;20363;-88
2021/09/08 10:53:15;;;;;;;;;;;;;;;7.34;95.50;99522.38;4976379;28;19918;-85
2021/09/08 10:55:44;;;;;;;;;;;;;;;7.43;98.04;99522.03;4975892;28;19918;-86
2021/09/08 10:58:09;;;;;;;;;;;;;;;7.43;95.04;99527.31;4989908;28;19993;-86
2021/09/08 11:00:37;;;;;;;;;;;;;;;7.34;95.48;99527.63;4976271;28;20016;-86
2021/09/08 11:03:03;;;;;;;;;;;;;;;7.31;96.00;99517.19;4991088;28;19930;-86
2021/09/08 11:05:29;;;;;;;;;;;;;;;7.54;97.89;99520.81;4974669;28;19918;-86
2021/09/08 11:07:54;;;;;;;;;;;;;;;7.48;95.20;99516.59;4974618;28;19918;-85
2021/09/08 11:10:24;;;;;;;;;;;;;;;7.36;95.55;99517.91;4990746;28;20592;-86
2021/09/08 11:12:51;;;;;;;;;;;;;;;7.42;95.30;99509.78;4989137;28;20292;-86
2021/09/08 11:15:18;;;;;;;;;;;;;;;7.42;95.22;99509.78;4990270;28;19977;-87
2021/09/08 11:17:51;;;;;;;;;;;;;;;7.45;94.69;99507.03;4975770;28;19918;-87
2021/09/08 11:20:17;;;;;;;;;;;;;;;7.44;95.23;99500.03;4973697;28;20365;-85
2021/09/08 11:22:42;;;;;;;;;;;;;;;7.38;94.60;99499.41;4990589;28;19914;-85
2021/09/08 11:25:09;;;;;;;;;;;;;;;7.52;96.69;99504.19;4975541;28;19926;-88
2021/09/08 11:27:35;;;;;;;;;;;;;;;7.51;95.90;99494.56;4974042;28;19993;-88
2021/09/08 11:30:04;;;;;;;;;;;;;;;7.54;95.41;99497.94;4974154;28;20370;-86
2021/09/08 11:32:47;;;;;;;;;;;;;;;7.52;95.45;99491.03;4974951;28;20002;-86
2021/09/08 11:35:12;;;;;;;;;;;;;;;7.59;96.75;99484.59;4975219;28;19925;-86
2021/09/08 11:37:42;;;;;;;;;;;;;;;7.54;95.63;99486.53;4974180;28;19922;-86
2021/09/08 11:40:07;;;;;;;;;;;;;;;7.55;95.64;99483.84;4974241;28;19926;-86
2021/09/08 11:42:42;;;;;;;;;;;;;;;7.67;97.92;99492.25;4972715;28;19918;-85
2021/09/08 11:45:08;;;;;;;;;;;;;;;7.56;95.11;99487.34;4974487;28;20010;-85
2021/09/08 11:47:34;;;;;;;;;;;;;;;7.57;94.84;99486.44;4975150;28;19918;-85
2021/09/08 11:49:59;;;;;;;;;;;;;;;7.44;95.12;99486.84;4975283;28;19922;-85
2021/09/08 11:52:26;;;;;;;;;;;;;;;7.40;95.05;99477.34;4975014;28;19973;-85
2021/09/08 11:54:51;;;;;;;;;;;;;;;7.51;95.80;99484.00;4975111;28;19976;-85
2021/09/08 11:57:23;;;;;;;;;;;;;;;7.43;94.97;99479.84;4972470;28;19926;-85
2021/09/08 11:59:50;;;;;;;;;;;;;;;7.45;95.06;99467.50;4974290;28;19949;-85
2021/09/08 12:02:16;;;;;;;;;;;;;;;7.54;94.79;99465.44;4974882;28;19918;-88
2021/09/08 12:04:41;;;;;;;;;;;;;;;7.46;94.53;99469.19;4974973;28;19984;-85
2021/09/08 12:07:07;;;;;;;;;;;;;;;7.45;94.77;99462.22;4974964;28;19918;-88
2021/09/08 12:09:43;;;;;;;;;;;;;;;7.49;94.68;99462.13;4974733;28;20401;-86
2021/09/08 12:12:09;;;;;;;;;;;;;;;7.43;94.94;99457.91;4973535;28;20004;-86
2021/09/08 12:14:35;;;;;;;;;;;;;;;7.42;94.43;99451.78;4974477;28;19926;-85
2021/09/08 12:17:20;;;;;;;;;;;;;;;7.47;94.71;99454.25;4974312;28;19929;-85
2021/09/08 12:19:47;;;;;;;;;;;;;;;7.40;94.76;99439.56;4989487;28;19953;-85
2021/09/08 12:22:15;;;;;;;;;;;;;;;7.39;94.71;99437.88;4974645;28;19922;-85
2021/09/08 12:24:43;;;;;;;;;;;;;;;7.40;94.69;99432.53;4974858;28;19925;-85
2021/09/08 12:27:27;;;;;;;;;;;;;;;7.35;95.14;99431.81;4987081;28;19922;-85
2021/09/08 12:29:53;;;;;;;;;;;;;;;7.48;94.98;99423.47;4989585;28;20020;-86
2021/09/08 12:32:19;;;;;;;;;;;;;;;7.58;94.99;99414.34;4974161;28;19925;-85
2021/09/08 12:34:45;;;;;;;;;;;;;;;7.60;95.40;99423.91;4989448;28;19918;-84
2021/09/08 12:37:11;;;;;;;;;;;;;;;7.67;96.67;99419.25;4973135;28;19965;-84
2021/09/08 12:39:46;;;;;;;;;;;;;;;7.55;95.07;99401.28;4988367;28;20341;-84
2021/09/08 12:42:22;;;;;;;;;;;;;;;7.61;96.19;99404.53;4987977;28;19957;-88
2021/09/08 12:44:48;;;;;;;;;;;;;;;7.50;94.40;99406.72;4983331;28;19969;-87
2021/09/08 12:47:16;;;;;;;;;;;;;;;7.54;96.13;99407.44;4972945;28;20451;-86
2021/09/08 12:49:42;;;;;;;;;;;;;;;7.64;95.45;99398.28;4974221;28;19922;-85
2021/09/08 12:52:11;;;;;;;;;;;;;;;7.59;95.24;99401.06;4974248;28;19933;-86
2021/09/08 12:54:37;;;;;;;;;;;;;;;7.55;94.65;99406.53;4988979;28;19968;-84
2021/09/08 12:57:03;;;;;;;;;;;;;;;7.48;94.53;99400.59;4970984;28;19922;-88
2021/09/08 12:59:30;;;;;;;;;;;;;;;7.57;95.69;99402.06;4971321;28;20416;-87
2021/09/08 13:01:56;;;;;;;;;;;;;;;7.57;94.66;99396.78;4972712;28;19929;-85
2021/09/08 13:04:21;;;;;;;;;;;;;;;7.57;95.28;99400.28;4972421;28;19918;-84
2021/09/08 13:06:47;;;;;;;;;;;;;;;7.54;94.67;99402.19;4973920;28;20173;-84
2021/09/08 13:09:12;;;;;;;;;;;;;;;7.51;95.11;99391.75;4988410;28;19950;-88
2021/09/08 13:11:38;;;;;;;;;;;;;;;7.56;94.81;99390.66;4987608;28;19918;-85
2021/09/08 13:14:04;;;;;;;;;;;;;;;7.62;95.89;99384.28;4972509;28;19929;-89
2021/09/08 13:16:33;;;;;;;;;;;;;;;7.49;94.36;99390.94;4972350;28;20288;-84
2021/09/08 13:18:59;;;;;;;;;;;;;;;7.47;94.82;99388.38;4988793;28;19914;-88
2021/09/08 13:21:24;;;;;;;;;;;;;;;7.50;94.27;99385.63;4972910;28;19918;-87
2021/09/08 13:23:50;;;;;;;;;;;;;;;7.45;94.32;99387.53;4973550;28;19925;-85
2021/09/08 13:26:15;;;;;;;;;;;;;;;7.51;94.48;99381.19;4988643;28;19942;-84
2021/09/08 13:28:40;;;;;;;;;;;;;;;7.48;94.17;99383.94;4971065;28;19980;-84
2021/09/08 13:31:05;;;;;;;;;;;;;;;7.48;93.96;99376.88;4973530;28;19918;-86
2021/09/08 13:33:31;;;;;;;;;;;;;;;7.47;93.80;99369.91;4972133;28;19918;-88
2021/09/08 13:35:56;;;;;;;;;;;;;;;7.47;94.21;99364.63;4972434;28;19924;-90
2021/09/08 13:38:21;;;;;;;;;;;;;;;7.51;94.39;99360.09;4971702;28;19925;-86
2021/09/08 13:40:46;;;;;;;;;;;;;;;7.50;93.85;99359.25;4972031;28;19926;-86
2021/09/08 13:43:12;;;;;;;;;;;;;;;7.41;94.26;99349.88;4970830;28;20396;-86
2021/09/08 13:45:38;;;;;;;;;;;;;;;7.49;95.07;99352.25;4988353;28;19926;-90
2021/09/08 13:48:04;;;;;;;;;;;;;;;7.51;94.69;99350.41;4971969;28;19957;-85
2021/09/08 13:50:31;;;;;;;;;;;;;;;7.55;94.37;99351.19;4971397;28;20198;-90
2021/09/08 13:52:56;;;;;;;;;;;;;;;7.64;94.79;99345.53;4972209;28;20325;-86
2021/09/08 13:55:21;;;;;;;;;;;;;;;7.61;94.76;99345.66;4972002;28;19964;-84
2021/09/08 13:57:47;;;;;;;;;;;;;;;7.56;95.22;99342.31;4970783;28;20385;-85
2021/09/08 14:00:12;;;;;;;;;;;;;;;7.95;97.94;99336.47;4971844;28;19929;-85
2021/09/08 14:02:37;;;;;;;;;;;;;;;7.91;96.70;99333.06;4971880;28;19976;-89
2021/09/08 14:05:03;;;;;;;;;;;;;;;7.73;95.02;99329.38;4983488;28;19918;-84
2021/09/08 14:07:28;;;;;;;;;;;;;;;7.67;94.99;99324.31;4987821;28;20372;-89
2021/09/08 14:09:53;;;;;;;;;;;;;;;7.60;94.69;99328.13;4973051;28;19925;-85
2021/09/08 14:12:19;;;;;;;;;;;;;;;7.57;94.65;99322.97;4970323;28;19922;-85
2021/09/08 14:14:45;;;;;;;;;;;;;;;7.61;94.97;99320.16;4973005;28;20340;-85
2021/09/08 14:17:10;;;;;;;;;;;;;;;7.63;94.55;99313.03;4973020;28;20350;-85
2021/09/08 14:19:36;;;;;;;;;;;;;;;7.59;94.41;99316.69;4967272;28;19925;-84
2021/09/08 14:22:01;;;;;;;;;;;;;;;7.65;95.62;99312.97;4972900;28;19922;-87
2021/09/08 14:24:27;;;;;;;;;;;;;;;7.61;94.71;99314.88;4987709;28;19954;-85
2021/09/08 14:26:52;;;;;;;;;;;;;;;7.81;97.67;99310.59;4970338;28;19965;-85
2021/09/08 14:29:17;;;;;;;;;;;;;;;7.73;96.01;99307.41;4971448;28;20389;-84
2021/09/08 14:31:43;;;;;;;;;;;;;;;7.65;95.73;99302.44;4972847;28;20017;-84
2021/09/08 14:34:08;;;;;;;;;;;;;;;7.65;94.84;99299.78;4972765;28;19980;-85
2021/09/08 14:36:33;;;;;;;;;;;;;;;7.64;94.35;99303.34;4972647;28;20381;-84
2021/09/08 14:38:59;;;;;;;;;;;;;;;7.58;94.57;99298.31;4971462;28;20309;-84
2021/09/08 14:41:24;;;;;;;;;;;;;;;7.66;94.98;99296.25;4987034;28;19914;-84
2021/09/08 14:43:49;;;;;;;;;;;;;;;7.57;94.20;99307.16;4972375;28;20281;-86
2021/09/08 14:46:18;;;;;;;;;;;;;;;7.61;94.25;99298.19;4973139;28;19931;-90
2021/09/08 14:48:43;;;;;;;;;;;;;;;7.69;95.99;99298.78;4987528;28;19918;-88
2021/09/08 14:51:08;;;;;;;;;;;;;;;7.62;94.51;99294.63;4972851;28;19918;-90
2021/09/08 14:53:34;;;;;;;;;;;;;;;7.59;94.13;99289.47;4991350;28;19914;-92
2021/09/08 14:55:59;;;;;;;;;;;;;;;7.56;94.32;99281.69;4991131;28;19981;-90
2021/09/08 14:58:24;;;;;;;;;;;;;;;7.55;94.30;99285.25;4975882;28;19930;-89
2021/09/08 15:00:49;;;;;;;;;;;;;;;7.53;93.80;99279.16;4975780;28;19952;-91
2021/09/08 15:03:15;;;;;;;;;;;;;;;7.53;94.48;99281.81;4975320;28;20337;-87
2021/09/08 15:05:40;;;;;;;;;;;;;;;7.49;94.37;99277.59;4976013;28;19925;-87
2021/09/08 15:08:06;;;;;;;;;;;;;;;7.56;93.99;99268.50;4975415;28;19918;-84
2021/09/08 15:10:32;;;;;;;;;;;;;;;7.53;93.62;99268.63;4991185;28;20420;-90
2021/09/08 15:12:58;;;;;;;;;;;;;;;7.55;94.29;99266.81;4973587;28;19934;-84
2021/09/08 15:15:23;;;;;;;;;;;;;;;7.53;94.25;99264.22;4991335;28;19945;-87
2021/09/08 15:17:49;;;;;;;;;;;;;;;7.56;93.97;99268.50;4976275;28;20358;-85
2021/09/08 15:20:14;;;;;;;;;;;;;;;7.62;93.75;99260.34;4974570;28;19969;-85
2021/09/08 15:22:40;;;;;;;;;;;;;;;7.68;96.03;99257.47;4974295;28;19918;-86
2021/09/08 15:25:06;;;;;;;;;;;;;;;7.64;95.45;99262.03;4986323;28;19922;-89
2021/09/08 15:27:31;;;;;;;;;;;;;;;7.62;94.60;99249.81;4973262;28;19918;-86
2021/09/08 15:29:56;;;;;;;;;;;;;;;7.60;94.40;99246.38;4974587;28;19996;-89
2021/09/08 15:32:22;;;;;;;;;;;;;;;7.65;95.68;99252.31;4974739;28;19986;-85
2021/09/08 15:34:49;;;;;;;;;;;;;;;7.75;95.00;99243.13;4975627;28;20385;-85
2021/09/08 15:37:15;;;;;;;;;;;;;;;7.67;94.87;99239.94;4990567;28;19918;-89
2021/09/08 15:39:40;;;;;;;;;;;;;;;7.62;94.63;99241.91;4990431;28;19928;-86
2021/09/08 15:42:06;;;;;;;;;;;;;;;7.58;94.67;99237.69;4974196;28;20357;-85
2021/09/08 15:44:32;;;;;;;;;;;;;;;7.59;94.52;99236.75;4990336;28;20366;-88
2021/09/08 15:46:57;;;;;;;;;;;;;;;7.59;94.54;99239.38;4974906;28;19922;-85
2021/09/08 15:49:22;;;;;;;;;;;;;;;7.50;94.44;99235.34;4975637;28;20357;-91
2021/09/08 15:51:47;;;;;;;;;;;;;;;7.49;94.60;99238.03;4990856;28;19918;-85
2021/09/08 15:54:13;;;;;;;;;;;;;;;7.70;96.29;99245.09;4974802;28;19933;-90
2021/09/08 15:56:38;;;;;;;;;;;;;;;7.64;93.94;99238.31;4989673;28;19922;-89
2021/09/08 15:59:03;;;;;;;;;;;;;;;7.60;94.07;99243.75;4990995;28;19917;-90
2021/09/08 16:01:29;;;;;;;;;;;;;;;7.63;93.82;99238.34;4973861;28;20006;-87
2021/09/08 16:03:54;;;;;;;;;;;;;;;7.61;93.92;99234.91;4974849;28;20350;-87
2021/09/08 16:06:19;;;;;;;;;;;;;;;7.65;96.06;99228.59;4975563;28;20028;-85
2021/09/08 16:08:44;;;;;;;;;;;;;;;7.66;94.55;99230.31;4989670;28;19937;-84
2021/09/08 16:11:10;;;;;;;;;;;;;;;7.72;94.97;99229.22;4973667;28;19925;-86
2021/09/08 16:13:37;;;;;;;;;;;;;;;7.77;94.96;99229.88;4973504;28;19922;-84
2021/09/08 16:16:06;;;;;;;;;;;;;;;7.63;94.42;99231.28;4975716;28;20277;-85
2021/09/08 16:18:36;;;;;;;;;;;;;;;7.60;94.84;99233.19;4973565;28;19926;-87
2021/09/08 16:21:02;;;;;;;;;;;;;;;7.63;94.67;99233.09;4975312;28;20013;-89
2021/09/08 16:23:27;;;;;;;;;;;;;;;7.63;94.34;99233.09;4973754;28;20406;-85
2021/09/08 16:25:56;;;;;;;;;;;;;;;7.59;94.09;99228.84;4975126;28;19922;-85
2021/09/08 16:28:25;;;;;;;;;;;;;;;7.63;94.20;99228.66;4974587;28;19970;-93
2021/09/08 16:30:51;;;;;;;;;;;;;;;7.71;94.36;99231.00;4975099;28;19925;-93
2021/09/08 16:33:17;;;;;;;;;;;;;;;7.66;93.40;99232.97;4974685;28;19922;-84
2021/09/08 16:35:42;;;;;;;;;;;;;;;7.61;93.34;99224.34;4974751;28;20373;-89
2021/09/08 16:38:08;;;;;;;;;;;;;;;7.59;94.06;99231.47;4974858;28;19918;-84
2021/09/08 16:40:33;;;;;;;;;;;;;;;7.54;94.43;99225.53;4974059;28;20384;-85
2021/09/08 16:42:58;;;;;;;;;;;;;;;7.59;93.68;99227.03;4974276;28;19918;-84
2021/09/08 16:45:26;;;;;;;;;;;;;;;7.52;94.01;99222.94;4975062;28;19929;-86
2021/09/08 16:47:51;;;;;;;;;;;;;;;7.51;93.43;99221.22;4974296;28;19926;-90
2021/09/08 16:50:16;;;;;;;;;;;;;;;7.54;93.54;99228.16;4973496;28;19918;-93
2021/09/08 16:52:41;;;;;;;;;;;;;;;7.45;93.77;99219.72;4990047;28;19926;-89
2021/09/08 16:55:08;;;;;;;;;;;;;;;7.51;93.73;99223.00;4973038;28;19962;-84
2021/09/08 16:57:33;;;;;;;;;;;;;;;7.53;94.17;99226.44;4972668;28;20393;-90
2021/09/08 16:59:58;;;;;;;;;;;;;;;7.55;93.69;99222.84;4989720;28;20021;-90
2021/09/08 17:02:23;;;;;;;;;;;;;;;7.55;93.55;99229.91;4973595;28;19922;-92
2021/09/08 17:04:49;;;;;;;;;;;;;;;7.55;93.13;99224.63;4974259;28;19986;-83
2021/09/08 17:07:14;;;;;;;;;;;;;;;7.53;93.68;99229.06;4989609;28;19925;-87
2021/09/08 17:09:39;;;;;;;;;;;;;;;7.50;93.51;99232.72;4972177;28;20337;-87
2021/09/08 17:12:05;;;;;;;;;;;;;;;7.58;93.99;99229.78;4988454;28;20459;-85
2021/09/08 17:14:30;;;;;;;;;;;;;;;7.59;93.66;99229.69;4972225;28;19922;-89
2021/09/08 17:16:55;;;;;;;;;;;;;;;7.59;93.76;99227.03;4989200;28;19933;-85
2021/09/08 17:19:20;;;;;;;;;;;;;;;7.60;94.06;99220.03;4974176;28;20401;-83
2021/09/08 17:21:46;;;;;;;;;;;;;;;7.54;94.02;99228.16;4988560;28;20108;-90
2021/09/08 17:24:11;;;;;;;;;;;;;;;7.56;94.21;99227.19;4989085;28;19925;-85
2021/09/08 17:26:36;;;;;;;;;;;;;;;7.58;94.37;99220.09;4971542;28;19926;-92
2021/09/08 17:29:03;;;;;;;;;;;;;;;7.58;94.35;99221.88;4972685;28;19918;-86
2021/09/08 17:31:28;;;;;;;;;;;;;;;7.56;93.86;99227.19;4989616;28;19926;-90
2021/09/08 17:33:53;;;;;;;;;;;;;;;7.57;94.63;99222.78;4989120;28;20440;-88
2021/09/08 17:36:19;;;;;;;;;;;;;;;7.61;94.41;99230.50;4973488;28;19922;-87
2021/09/08 17:38:45;;;;;;;;;;;;;;;7.58;94.11;99224.50;4974013;28;19972;-85
2021/09/08 17:43:36;;;;;;;;;;;;;;;7.62;94.44;99226.09;4972889;28;20431;-85
2021/09/08 17:46:02;;;;;;;;;;;;;;;7.60;94.85;99226.13;4987471;28;19973;-85
2021/09/08 17:48:28;;;;;;;;;;;;;;;7.64;94.58;99227.75;4974228;28;20344;-84
2021/09/08 17:50:53;;;;;;;;;;;;;;;7.66;94.08;99232.97;4974173;28;19918;-85
2021/09/08 17:53:18;;;;;;;;;;;;;;;7.67;94.34;99228.53;4973321;28;20373;-88
2021/09/08 17:55:46;;;;;;;;;;;;;;;7.52;94.99;99236.13;4972905;28;19960;-85
2021/09/08 17:58:11;;;;;;;;;;;;;;;7.60;94.70;99233.19;4971581;28;19937;-89
2021/09/08 18:00:37;;;;;;;;;;;;;;;7.61;94.61;99229.63;4989038;28;19926;-86
2021/09/08 18:03:02;;;;;;;;;;;;;;;7.59;94.41;99232.31;4988906;28;19921;-88
2021/09/08 18:05:28;;;;;;;;;;;;;;;7.63;93.99;99228.66;4988942;28;19926;-86
2021/09/08 18:07:53;;;;;;;;;;;;;;;7.62;93.94;99231.34;4988387;28;19925;-85
2021/09/08 18:10:19;;;;;;;;;;;;;;;7.57;94.19;99234.16;4972457;28;19929;-84
2021/09/08 18:12:45;;;;;;;;;;;;;;;7.61;94.37;99232.25;4971664;28;19922;-92
2021/09/08 18:15:13;;;;;;;;;;;;;;;7.52;94.55;99240.56;4974021;28;19929;-83
2021/09/08 18:17:39;;;;;;;;;;;;;;;7.60;94.49;99243.75;4972928;28;20322;-92
2021/09/08 18:20:05;;;;;;;;;;;;;;;7.52;94.45;99236.13;4988414;28;19969;-85
2021/09/08 18:22:33;;;;;;;;;;;;;;;7.60;94.79;99233.19;4988456;28;19922;-91
2021/09/08 18:25:02;;;;;;;;;;;;;;;7.55;94.25;99238.66;4973577;28;19922;-87
2021/09/08 18:27:27;;;;;;;;;;;;;;;7.65;93.80;99225.97;4991452;28;19918;-87
2021/09/08 18:29:52;;;;;;;;;;;;;;;7.56;94.02;99232.47;4992468;28;20281;-85
2021/09/08 18:32:20;;;;;;;;;;;;;;;7.57;94.17;99236.81;4972069;28;19933;-83
2021/09/08 18:34:46;;;;;;;;;;;;;;;7.58;94.69;99242.97;4977470;28;19924;-84
2021/09/08 18:37:15;;;;;;;;;;;;;;;13.80;75.32;99219.66;4976801;28;19922;-86
2021/09/08 18:39:43;;;;;;;;;;;;;;;9.39;89.99;99230.84;4990786;28;20017;-85
2021/09/08 18:42:08;;;;;;;;;;;;;;;8.42;95.13;99235.97;4974257;28;20452;-86
2021/09/08 18:44:33;;;;;;;;;;;;;;;8.11;95.97;99239.91;4973983;28;19933;-86
2021/09/08 18:46:58;;;;;;;;;;;;;;;8.03;95.42;99238.53;4974684;28;19923;-86